createdAt,value
2019-02-03T00:02:21.190Z,90.17
2019-02-03T00:04:51.686Z,90.05
2019-02-03T00:07:22.294Z,89.81
2019-02-03T00:09:52.852Z,90.25
2019-02-03T00:12:23.750Z,90.32
2019-02-03T00:14:54.319Z,90.25
2019-02-03T00:17:24.796Z,90.11
2019-02-03T00:19:55.294Z,90.23
2019-02-03T00:22:25.778Z,90.34
2019-02-03T00:24:56.669Z,90.33
2019-02-03T00:27:27.186Z,90.21
2019-02-03T00:29:57.756Z,90.01
2019-02-03T00:32:28.220Z,90.03
2019-02-03T00:34:58.690Z,90.04
2019-02-03T00:37:29.540Z,90.03
2019-02-03T00:40:00.023Z,90.15
2019-02-03T00:42:30.573Z,90.17
2019-02-03T00:45:01.726Z,90.09
2019-02-03T00:47:32.230Z,90.28
2019-02-03T00:50:02.896Z,90.46
2019-02-03T00:52:33.460Z,90.28
2019-02-03T00:55:04.818Z,90.11
2019-02-03T00:57:35.345Z,89.95
2019-02-03T01:00:07.959Z,90.14
2019-02-03T01:02:38.469Z,90.18
2019-02-03T01:05:13.993Z,90.48
2019-02-03T01:07:44.557Z,90.34
2019-02-03T01:10:20.748Z,90.72
2019-02-03T01:12:51.617Z,90.80
2019-02-03T01:15:22.308Z,90.98
2019-02-03T01:17:52.946Z,91.21
2019-02-03T01:20:23.678Z,90.86
2019-02-03T01:22:54.294Z,91.24
2019-02-03T01:25:24.813Z,91.39
2019-02-03T01:27:55.272Z,91.56
2019-02-03T01:30:25.751Z,91.54
2019-02-03T01:32:56.296Z,91.32
2019-02-03T01:35:26.797Z,91.46
2019-02-03T01:37:57.456Z,91.41
2019-02-03T01:40:28.002Z,91.58
2019-02-03T01:42:58.496Z,91.70
2019-02-03T01:45:28.980Z,91.86
2019-02-03T01:47:59.514Z,91.42
2019-02-03T01:50:30.180Z,91.45
2019-02-03T01:53:00.662Z,91.78
2019-02-03T01:55:31.215Z,91.61
2019-02-03T01:58:01.689Z,91.58
2019-02-03T02:00:32.284Z,91.77
2019-02-03T02:03:03.307Z,92.00
2019-02-03T02:05:33.812Z,92.04
2019-02-03T02:08:04.303Z,91.82
2019-02-03T02:10:34.850Z,91.86
2019-02-03T02:13:08.137Z,91.93
2019-02-03T02:15:38.684Z,91.84
2019-02-03T02:18:09.226Z,91.70
2019-02-03T02:20:39.701Z,91.87
2019-02-03T02:23:10.195Z,91.80
2019-02-03T02:25:40.761Z,91.83
2019-02-03T02:28:11.239Z,91.90
2019-02-03T02:30:41.808Z,91.75
2019-02-03T02:33:12.319Z,91.81
2019-02-03T02:35:42.971Z,91.72
2019-02-03T02:38:13.530Z,91.78
2019-02-03T02:40:44.345Z,91.80
2019-02-03T02:43:14.821Z,92.02
2019-02-03T02:45:45.283Z,91.99
2019-02-03T02:48:15.863Z,92.38
2019-02-03T02:50:46.792Z,92.44
2019-02-03T02:53:17.387Z,92.57
2019-02-03T02:55:47.899Z,92.22
2019-02-03T02:58:18.380Z,92.35
2019-02-03T03:00:48.864Z,92.34
2019-02-03T03:03:19.402Z,92.25
2019-02-03T03:05:50.187Z,92.13
2019-02-03T03:08:20.658Z,92.33
2019-02-03T03:10:51.214Z,92.34
2019-02-03T03:13:21.679Z,92.45
2019-02-03T03:15:52.157Z,92.00
2019-02-03T03:18:23.034Z,92.02
2019-02-03T03:20:53.493Z,92.07
2019-02-03T03:23:24.001Z,91.99
2019-02-03T03:25:54.556Z,91.69
2019-02-03T03:28:25.048Z,91.87
2019-02-03T03:30:55.716Z,91.63
2019-02-03T03:33:26.249Z,91.83
2019-02-03T03:35:56.750Z,91.87
2019-02-03T03:38:32.124Z,91.63
2019-02-03T03:40:59.467Z,91.67
2019-02-03T03:43:30.110Z,91.36
2019-02-03T03:46:00.644Z,91.45
2019-02-03T03:51:13.671Z,91.06
2019-02-03T03:53:44.559Z,91.05
2019-02-03T03:56:16.539Z,91.37
2019-02-03T03:58:47.185Z,91.25
2019-02-03T04:01:17.803Z,91.60
2019-02-03T04:03:48.384Z,91.50
2019-02-03T04:06:19.291Z,91.46
2019-02-03T04:08:49.902Z,91.83
2019-02-03T04:11:20.506Z,92.21
2019-02-03T04:13:51.522Z,92.82
2019-02-03T04:16:23.411Z,92.97
2019-02-03T04:18:54.537Z,93.23
2019-02-03T04:21:25.113Z,92.77
2019-02-03T04:23:55.719Z,92.98
2019-02-03T04:26:26.358Z,93.08
2019-02-03T04:28:57.156Z,93.06
2019-02-03T04:31:27.727Z,92.95
2019-02-03T04:33:58.384Z,92.97
2019-02-03T04:36:29.379Z,92.59
2019-02-03T04:38:59.957Z,92.32
2019-02-03T04:41:30.574Z,92.38
2019-02-03T04:44:01.224Z,92.38
2019-02-03T04:46:31.731Z,92.18
2019-02-03T04:49:02.543Z,91.80
2019-02-03T04:51:33.089Z,91.70
2019-02-03T04:54:03.661Z,91.42
2019-02-03T04:56:34.499Z,91.42
2019-02-03T04:59:06.361Z,91.42
2019-02-03T05:01:37.044Z,91.12
2019-02-03T05:04:07.822Z,90.79
2019-02-03T05:06:38.440Z,90.74
2019-02-03T05:09:11.522Z,91.05
2019-02-03T05:11:42.452Z,90.91
2019-02-03T05:14:13.440Z,90.67
2019-02-03T05:16:44.186Z,90.63
2019-02-03T05:19:14.929Z,90.98
2019-02-03T05:21:45.697Z,90.66
2019-02-03T05:24:16.511Z,90.50
2019-02-03T05:26:47.235Z,90.32
2019-02-03T05:29:17.864Z,90.29
2019-02-03T05:31:48.571Z,90.29
2019-02-03T05:34:19.346Z,89.84
2019-02-03T05:36:49.995Z,89.87
2019-02-03T05:39:25.168Z,89.87
2019-02-03T05:41:53.221Z,89.97
2019-02-03T05:44:23.847Z,90.26
2019-02-03T05:46:54.587Z,90.09
2019-02-03T05:49:25.371Z,89.98
2019-02-03T05:51:56.212Z,89.26
2019-02-03T05:54:26.938Z,89.84
2019-02-03T05:56:57.813Z,89.68
2019-02-03T05:59:28.518Z,89.12
2019-02-03T06:01:59.211Z,89.11
2019-02-03T06:04:29.946Z,89.46
2019-02-03T06:07:00.541Z,89.34
2019-02-03T06:09:36.741Z,89.48
2019-02-03T06:12:03.584Z,89.53
2019-02-03T06:14:34.314Z,89.04
2019-02-03T06:17:04.966Z,89.25
2019-02-03T06:19:35.592Z,89.09
2019-02-03T06:22:06.442Z,89.28
2019-02-03T06:24:42.297Z,89.48
2019-02-03T06:27:12.964Z,89.04
2019-02-03T06:29:43.596Z,88.60
2019-02-03T06:32:14.192Z,88.73
2019-02-03T06:34:44.926Z,88.14
2019-02-03T06:37:15.515Z,88.35
2019-02-03T06:39:48.574Z,88.25
2019-02-03T06:42:18.431Z,88.10
2019-02-03T06:44:49.061Z,88.16
2019-02-03T06:47:23.934Z,88.04
2019-02-03T06:49:54.572Z,87.99
2019-02-03T06:52:25.113Z,87.88
2019-02-03T06:54:55.685Z,87.51
2019-02-03T06:57:26.173Z,87.14
2019-02-03T06:59:56.649Z,87.43
2019-02-03T07:02:27.188Z,87.30
2019-02-03T07:04:57.681Z,87.37
2019-02-03T07:07:28.160Z,87.72
2019-02-03T07:10:00.777Z,88.04
2019-02-03T07:12:30.878Z,87.75
2019-02-03T07:15:01.410Z,87.85
2019-02-03T07:17:31.944Z,87.42
2019-02-03T07:20:02.463Z,87.53
2019-02-03T07:22:33.033Z,87.20
2019-02-03T07:25:03.603Z,87.44
2019-02-03T07:27:34.135Z,87.19
2019-02-03T07:30:05.504Z,87.27
2019-02-03T07:32:36.044Z,87.10
2019-02-03T07:35:07.209Z,86.85
2019-02-03T07:37:38.030Z,86.76
2019-02-03T07:40:12.504Z,86.98
2019-02-03T07:42:40.961Z,86.96
2019-02-03T07:45:11.499Z,86.91
2019-02-03T07:47:42.047Z,86.83
2019-02-03T07:50:12.536Z,86.96
2019-02-03T07:52:43.012Z,87.05
2019-02-03T07:55:13.626Z,86.82
2019-02-03T07:57:44.422Z,86.92
2019-02-03T08:00:15.232Z,86.96
2019-02-03T08:02:45.892Z,86.45
2019-02-03T08:05:16.485Z,86.66
2019-02-03T08:07:46.982Z,86.86
2019-02-03T08:10:24.733Z,86.82
2019-02-03T08:12:50.197Z,86.45
2019-02-03T08:15:20.682Z,86.65
2019-02-03T08:17:51.267Z,86.53
2019-02-03T08:20:21.909Z,86.30
2019-02-03T08:22:52.450Z,86.54
2019-02-03T08:25:23.122Z,86.25
2019-02-03T08:27:53.651Z,86.11
2019-02-03T08:30:24.862Z,86.54
2019-02-03T08:32:55.426Z,86.72
2019-02-03T08:35:25.955Z,86.68
2019-02-03T08:37:56.434Z,86.58
2019-02-03T08:40:36.548Z,86.87
2019-02-03T08:43:00.067Z,87.14
2019-02-03T08:45:30.511Z,87.18
2019-02-03T08:48:01.080Z,86.87
2019-02-03T08:50:31.556Z,86.37
2019-02-03T08:53:02.134Z,86.08
2019-02-03T08:55:32.684Z,85.38
2019-02-03T08:58:03.183Z,85.49
2019-02-03T09:00:33.691Z,86.08
2019-02-03T09:03:04.240Z,86.31
2019-02-03T09:05:34.745Z,86.50
2019-02-03T09:08:05.327Z,86.68
2019-02-03T09:10:47.787Z,86.94
2019-02-03T09:13:09.754Z,87.12
2019-02-03T09:15:40.468Z,87.25
2019-02-03T09:18:11.036Z,87.26
2019-02-03T09:20:41.535Z,87.07
2019-02-03T09:23:12.072Z,86.79
2019-02-03T09:25:42.586Z,86.99
2019-02-03T09:28:13.112Z,86.60
2019-02-03T09:30:43.743Z,86.37
2019-02-03T09:33:14.306Z,86.05
2019-02-03T09:35:44.798Z,86.00
2019-02-03T09:38:15.251Z,86.07
2019-02-03T09:40:45.757Z,85.37
2019-02-03T09:43:16.637Z,84.99
2019-02-03T09:45:47.196Z,84.73
2019-02-03T09:48:17.924Z,84.12
2019-02-03T09:50:48.406Z,84.38
2019-02-03T09:53:18.879Z,83.79
2019-02-03T09:55:49.663Z,83.75
2019-02-03T09:58:20.165Z,84.06
2019-02-03T10:00:50.670Z,83.63
2019-02-03T10:03:21.199Z,82.64
2019-02-03T10:05:51.670Z,81.81
2019-02-03T10:08:22.174Z,81.79
2019-02-03T10:10:52.669Z,81.70
2019-02-03T10:13:23.277Z,81.93
2019-02-03T10:15:53.763Z,80.69
2019-02-03T10:18:24.701Z,80.03
2019-02-03T10:20:55.246Z,79.98
2019-02-03T10:23:25.762Z,79.53
2019-02-03T10:25:56.297Z,79.15
2019-02-03T10:28:26.738Z,78.63
2019-02-03T10:30:57.219Z,78.33
2019-02-03T10:33:27.833Z,77.86
2019-02-03T10:35:58.344Z,76.88
2019-02-03T10:38:28.830Z,77.34
2019-02-03T10:40:59.374Z,77.47
2019-02-03T10:43:29.836Z,77.34
2019-02-03T10:46:00.434Z,77.43
2019-02-03T10:48:31.008Z,75.61
2019-02-03T10:51:01.539Z,75.63
2019-02-03T10:53:33.769Z,75.57
2019-02-03T10:56:04.613Z,74.95
2019-02-03T10:58:35.114Z,74.73
2019-02-03T11:01:05.922Z,74.40
2019-02-03T11:03:36.460Z,74.35
2019-02-03T11:06:07.108Z,73.26
2019-02-03T11:08:37.641Z,73.50
2019-02-03T11:11:08.268Z,72.35
2019-02-03T11:13:38.834Z,70.18
2019-02-03T11:16:09.346Z,72.21
2019-02-03T11:18:39.830Z,71.78
2019-02-03T11:21:11.573Z,71.36
2019-02-03T11:23:43.450Z,70.82
2019-02-03T11:26:15.250Z,70.93
2019-02-03T11:28:45.725Z,70.72
2019-02-03T11:31:16.312Z,71.10
2019-02-03T11:33:46.840Z,69.77
2019-02-03T11:36:17.293Z,70.24
2019-02-03T11:38:47.825Z,70.83
2019-02-03T11:41:18.437Z,68.86
2019-02-03T11:43:48.976Z,67.66
2019-02-03T11:46:19.449Z,67.28
2019-02-03T11:48:50.008Z,68.30
2019-02-03T11:51:20.458Z,68.04
2019-02-03T11:53:50.965Z,67.64
2019-02-03T11:56:21.452Z,66.59
2019-02-03T11:58:51.944Z,67.34
2019-02-03T12:01:22.423Z,67.25
2019-02-03T12:03:52.973Z,66.78
2019-02-03T12:06:23.444Z,67.22
2019-02-03T12:08:53.945Z,67.61
2019-02-03T12:11:24.460Z,67.86
2019-02-03T12:13:54.961Z,68.20
2019-02-03T12:16:25.445Z,68.54
2019-02-03T12:18:56.110Z,67.95
2019-02-03T12:21:26.511Z,68.27
2019-02-03T12:23:57.027Z,68.18
2019-02-03T12:26:27.531Z,68.63
2019-02-03T12:28:58.113Z,67.66
2019-02-03T12:31:28.688Z,68.77
2019-02-03T12:33:59.217Z,68.70
2019-02-03T12:36:29.716Z,68.75
2019-02-03T12:39:00.189Z,68.46
2019-02-03T12:41:30.781Z,69.04
2019-02-03T12:44:01.629Z,68.97
2019-02-03T12:46:32.153Z,68.68
2019-02-03T12:49:02.659Z,69.40
2019-02-03T12:51:33.160Z,69.32
2019-02-03T12:54:03.675Z,69.34
2019-02-03T12:56:34.344Z,69.50
2019-02-03T12:59:04.819Z,69.29
2019-02-03T13:01:35.328Z,69.22
2019-02-03T13:04:05.968Z,69.67
2019-02-03T13:06:36.456Z,69.34
2019-02-03T13:09:10.716Z,69.19
2019-02-03T13:11:41.364Z,69.26
2019-02-03T13:14:12.275Z,69.23
2019-02-03T13:16:42.780Z,68.94
2019-02-03T13:19:15.646Z,68.92
2019-02-03T13:21:45.530Z,68.95
2019-02-03T13:24:18.619Z,68.80
2019-02-03T13:26:48.354Z,68.72
2019-02-03T13:29:18.851Z,69.43
2019-02-03T13:31:49.319Z,69.42
2019-02-03T13:34:19.977Z,69.12
2019-02-03T13:36:50.420Z,69.83
2019-02-03T13:39:20.924Z,70.25
2019-02-03T13:41:51.432Z,70.75
2019-02-03T13:44:21.968Z,70.91
2019-02-03T13:46:52.587Z,70.47
2019-02-03T13:49:23.108Z,70.14
2019-02-03T13:51:53.578Z,70.05
2019-02-03T13:54:24.128Z,70.60
2019-02-03T13:56:54.638Z,70.49
2019-02-03T13:59:50.140Z,71.24
2019-02-03T14:02:20.752Z,71.41
2019-02-03T14:07:33.701Z,72.90
2019-02-03T14:10:05.363Z,73.10
2019-02-03T14:12:36.044Z,73.45
2019-02-03T14:15:08.796Z,73.51
2019-02-03T14:17:39.663Z,73.98
2019-02-03T14:20:15.838Z,73.89
2019-02-03T14:22:46.429Z,74.00
2019-02-03T14:25:19.105Z,73.89
2019-02-03T14:27:49.945Z,73.95
2019-02-03T14:30:40.359Z,74.17
2019-02-03T14:33:05.984Z,74.10
2019-02-03T14:35:36.454Z,73.96
2019-02-03T14:38:08.176Z,73.75
2019-02-03T14:40:39.149Z,74.47
2019-02-03T14:43:09.785Z,74.46
2019-02-03T14:45:40.273Z,75.20
2019-02-03T14:48:10.880Z,75.50
2019-02-03T14:50:41.521Z,75.66
2019-02-03T14:53:15.477Z,76.03
2019-02-03T14:55:51.632Z,76.44
2019-02-03T14:58:22.314Z,76.65
2019-02-03T15:00:54.127Z,76.80
2019-02-03T15:03:26.752Z,76.89
2019-02-03T15:05:57.279Z,77.19
2019-02-03T15:08:27.773Z,77.40
2019-02-03T15:10:58.266Z,77.55
2019-02-03T15:13:28.806Z,77.96
2019-02-03T15:15:59.341Z,77.89
2019-02-03T15:18:29.817Z,78.38
2019-02-03T15:21:00.355Z,78.70
2019-02-03T15:23:30.831Z,78.91
2019-02-03T15:26:01.440Z,79.79
2019-02-03T15:28:31.969Z,80.16
2019-02-03T15:31:02.465Z,80.71
2019-02-03T15:33:32.964Z,81.39
2019-02-03T15:36:03.519Z,81.46
2019-02-03T15:38:34.037Z,82.04
2019-02-03T15:41:04.725Z,82.38
2019-02-03T15:43:35.276Z,82.37
2019-02-03T15:46:08.017Z,82.43
2019-02-03T15:48:38.547Z,83.04
2019-02-03T15:51:10.077Z,83.18
2019-02-03T15:53:40.726Z,83.36
2019-02-03T15:56:11.474Z,83.31
2019-02-03T15:58:42.102Z,83.87
2019-02-03T16:01:12.611Z,84.32
2019-02-03T16:03:44.926Z,84.12
2019-02-03T16:06:15.638Z,84.63
2019-02-03T16:08:46.153Z,84.51
2019-02-03T16:11:17.006Z,84.92
2019-02-03T16:13:47.585Z,85.27
2019-02-03T16:16:18.179Z,85.27
2019-02-03T16:18:48.806Z,85.46
2019-02-03T16:21:19.552Z,85.98
2019-02-03T16:23:50.208Z,86.09
2019-02-03T16:26:20.931Z,85.81
2019-02-03T16:28:56.223Z,86.13
2019-02-03T16:31:27.434Z,86.52
2019-02-03T16:33:58.248Z,86.70
2019-02-03T16:36:33.479Z,87.18
2019-02-03T16:46:58.389Z,88.65
2019-02-03T16:49:30.635Z,88.76
2019-02-03T16:58:50.500Z,89.24
2019-02-03T17:01:44.058Z,89.64
2019-02-03T17:04:24.385Z,89.87
2019-02-03T17:06:54.929Z,90.07
2019-02-03T17:09:25.422Z,90.27
2019-02-03T17:11:56.301Z,90.28
2019-02-03T17:14:27.800Z,90.20
2019-02-03T17:16:58.490Z,90.24
2019-02-03T17:19:29.109Z,90.46
2019-02-03T17:21:59.961Z,90.58
2019-02-03T17:24:49.994Z,90.63
2019-02-03T17:27:20.536Z,90.76
2019-02-03T17:29:51.143Z,90.67
2019-02-03T17:32:21.918Z,90.65
2019-02-03T17:34:52.543Z,90.67
2019-02-03T17:37:23.408Z,90.65
2019-02-03T17:39:56.792Z,90.42
2019-02-03T17:42:27.272Z,90.66
2019-02-03T17:44:57.938Z,90.78
2019-02-03T17:47:28.518Z,90.56
2019-02-03T17:49:59.360Z,90.63
2019-02-03T17:52:38.660Z,90.69
2019-02-03T17:55:03.700Z,90.57
2019-02-03T17:57:34.418Z,90.46
2019-02-03T18:00:06.001Z,90.52
2019-02-03T18:02:37.880Z,90.82
2019-02-03T18:05:10.929Z,90.77
2019-02-03T18:07:41.801Z,90.57
2019-02-03T18:10:16.413Z,90.74
2019-02-03T18:12:47.016Z,90.66
2019-02-03T18:15:17.904Z,90.64
2019-02-03T18:17:49.069Z,90.67
2019-02-03T18:29:09.013Z,91.14
2019-02-03T18:31:39.605Z,91.09
2019-02-03T18:34:10.153Z,90.95
2019-02-03T18:36:40.716Z,90.77
2019-02-03T18:39:11.796Z,91.18
2019-02-03T18:41:42.366Z,91.30
2019-02-03T18:44:12.975Z,91.47
2019-02-03T18:46:43.943Z,91.37
2019-02-03T18:49:14.632Z,91.33
2019-02-03T18:51:45.821Z,91.44
2019-02-03T18:54:16.396Z,91.24
2019-02-03T18:56:47.429Z,91.31
2019-02-03T18:59:18.070Z,91.40
2019-02-03T19:01:48.899Z,91.45
2019-02-03T19:04:19.915Z,91.48
2019-02-03T19:06:50.910Z,91.81
2019-02-03T19:09:21.701Z,91.85
2019-02-03T19:11:52.482Z,92.08
2019-02-03T19:14:23.507Z,92.18
2019-02-03T19:16:54.401Z,92.37
2019-02-03T19:19:24.995Z,92.41
2019-02-03T19:21:55.647Z,92.23
2019-02-03T19:24:26.687Z,92.29
2019-02-03T19:26:57.922Z,92.19
2019-02-03T19:29:31.789Z,92.06
2019-02-03T19:32:02.553Z,92.08
2019-02-03T19:34:33.308Z,92.01
2019-02-03T19:37:05.596Z,92.01
2019-02-03T19:39:37.866Z,91.93
2019-02-03T19:42:08.707Z,92.01
2019-02-03T19:44:39.454Z,91.96
2019-02-03T19:47:12.346Z,92.07
2019-02-03T19:49:46.648Z,92.16
2019-02-03T19:52:17.054Z,92.25
2019-02-03T19:54:51.842Z,92.38
2019-02-03T19:57:23.215Z,92.39
2019-02-03T19:59:54.586Z,92.36
2019-02-03T20:02:25.570Z,92.24
2019-02-03T20:04:56.412Z,92.66
2019-02-03T20:07:27.274Z,92.74
2019-02-03T20:09:57.895Z,92.68
2019-02-03T20:12:28.672Z,92.68
2019-02-03T20:15:09.620Z,92.66
2019-02-03T20:17:32.299Z,92.60
2019-02-03T20:20:03.958Z,92.62
2019-02-03T20:22:34.621Z,92.62
2019-02-03T20:25:06.430Z,92.68
2019-02-03T20:27:37.133Z,92.71
2019-02-03T20:30:16.123Z,92.80
2019-02-03T20:32:46.820Z,92.72
2019-02-03T20:35:18.367Z,92.72
2019-02-03T20:37:49.215Z,92.74
2019-02-03T20:40:30.388Z,92.71
2019-02-03T20:43:01.352Z,92.71
2019-02-03T20:45:32.040Z,92.61
2019-02-03T20:48:02.917Z,92.58
2019-02-03T20:50:33.522Z,92.55
2019-02-03T20:53:04.188Z,92.84
2019-02-03T20:55:34.829Z,92.84
2019-02-03T20:58:05.469Z,92.96
2019-02-03T21:00:36.948Z,92.82
2019-02-03T21:03:07.969Z,92.76
2019-02-03T21:05:38.702Z,92.29
2019-02-03T21:08:09.333Z,92.54
2019-02-03T21:10:40.049Z,92.42
2019-02-03T21:13:11.727Z,92.59
2019-02-03T21:15:42.840Z,92.70
2019-02-03T21:18:13.485Z,92.66
2019-02-03T21:20:44.705Z,92.83
2019-02-03T21:23:16.655Z,92.90
2019-02-03T21:25:47.236Z,92.86
2019-02-03T21:28:17.922Z,92.93
2019-02-03T21:30:48.806Z,92.92
2019-02-03T21:33:19.605Z,93.02
2019-02-03T21:35:50.184Z,92.94
2019-02-03T21:38:20.997Z,93.21
2019-02-03T21:40:51.613Z,93.24
2019-02-03T21:43:22.441Z,93.37
2019-02-03T21:45:52.992Z,93.38
2019-02-03T21:48:23.503Z,93.39
2019-02-03T21:50:55.424Z,93.62
2019-02-03T21:53:25.982Z,93.69
2019-02-03T21:55:56.682Z,93.76
2019-02-03T21:58:27.190Z,93.81
2019-02-03T22:00:57.664Z,93.84
2019-02-03T22:04:49.549Z,93.97
2019-02-03T22:07:21.957Z,94.02
2019-02-03T22:09:52.457Z,93.89
2019-02-03T22:12:22.947Z,93.93
2019-02-03T22:14:53.477Z,93.83
2019-02-03T22:17:23.968Z,93.78
2019-02-03T22:19:54.775Z,93.90
2019-02-03T22:22:25.319Z,93.93
2019-02-03T22:24:55.826Z,94.03
2019-02-03T22:27:26.372Z,94.03
2019-02-03T22:29:57.001Z,94.08
2019-02-03T22:32:27.784Z,94.19
2019-02-03T22:34:58.282Z,94.36
2019-02-03T22:37:28.780Z,94.41
2019-02-03T22:39:59.379Z,94.38
2019-02-03T22:42:29.921Z,94.33
2019-02-03T22:45:00.578Z,94.48
2019-02-03T22:47:31.080Z,94.50
2019-02-03T22:50:01.601Z,94.36
2019-02-03T22:52:32.119Z,94.47
2019-02-03T22:55:02.652Z,94.48
2019-02-03T22:57:33.518Z,94.64
2019-02-03T23:00:11.351Z,94.48
2019-02-03T23:02:41.902Z,94.51
2019-02-03T23:05:12.537Z,94.47
2019-02-03T23:07:43.029Z,94.79
2019-02-03T23:10:13.592Z,94.86
2019-02-03T23:12:44.158Z,94.77
2019-02-03T23:15:14.819Z,94.35
2019-02-03T23:17:45.325Z,93.90
2019-02-03T23:20:15.838Z,93.92
2019-02-03T23:22:46.373Z,93.73
2019-02-03T23:25:16.850Z,93.73
2019-02-03T23:27:47.351Z,93.68
2019-02-03T23:30:18.174Z,93.76
2019-02-03T23:32:48.685Z,93.87
2019-02-03T23:35:19.474Z,93.89
2019-02-03T23:37:50.012Z,93.91
2019-02-03T23:40:21.092Z,93.98
2019-02-03T23:42:51.599Z,93.97
2019-02-03T23:45:22.110Z,93.92
2019-02-03T23:47:52.912Z,94.00
2019-02-03T23:50:23.423Z,93.93
2019-02-03T23:52:53.948Z,94.01
2019-02-03T23:55:24.443Z,93.94
2019-02-03T23:57:54.935Z,94.03
